sensor_id;sensor_type;location;lat;lon;timestamp;P1;durP1;ratioP1;P2;durP2;ratioP2
52866;SDS011;38739;53.324;6.862;2023-07-09T00:02:15;96.68;;;23.73;;
52866;SDS011;38739;53.324;6.862;2023-07-09T00:04:41;140.68;;;44.70;;
52866;SDS011;38739;53.324;6.862;2023-07-09T00:07:11;94.93;;;35.13;;
52866;SDS011;38739;53.324;6.862;2023-07-09T00:09:58;46.75;;;15.45;;
52866;SDS011;38739;53.324;6.862;2023-07-09T00:12:24;33.53;;;17.73;;
52866;SDS011;38739;53.324;6.862;2023-07-09T00:14:50;84.63;;;23.67;;
52866;SDS011;38739;53.324;6.862;2023-07-09T00:17:27;71.82;;;25.83;;
52866;SDS011;38739;53.324;6.862;2023-07-09T00:19:56;41.97;;;16.73;;
52866;SDS011;38739;53.324;6.862;2023-07-09T00:22:21;52.05;;;17.08;;
52866;SDS011;38739;53.324;6.862;2023-07-09T00:24:49;33.58;;;13.45;;
52866;SDS011;38739;53.324;6.862;2023-07-09T00:27:19;110.25;;;30.40;;
52866;SDS011;38739;53.324;6.862;2023-07-09T00:29:46;86.53;;;28.25;;
52866;SDS011;38739;53.324;6.862;2023-07-09T00:32:16;54.78;;;18.92;;
52866;SDS011;38739;53.324;6.862;2023-07-09T00:34:45;59.45;;;26.02;;
52866;SDS011;38739;53.324;6.862;2023-07-09T00:37:16;93.45;;;30.02;;
52866;SDS011;38739;53.324;6.862;2023-07-09T00:39:45;66.00;;;24.67;;
52866;SDS011;38739;53.324;6.862;2023-07-09T00:42:11;73.57;;;24.27;;
52866;SDS011;38739;53.324;6.862;2023-07-09T00:44:46;30.67;;;13.23;;
52866;SDS011;38739;53.324;6.862;2023-07-09T00:53:02;38.53;;;15.90;;
52866;SDS011;38739;53.324;6.862;2023-07-09T00:55:36;37.28;;;16.70;;
52866;SDS011;38739;53.324;6.862;2023-07-09T00:58:06;53.08;;;20.15;;
52866;SDS011;38739;53.324;6.862;2023-07-09T01:00:38;48.75;;;22.33;;
52866;SDS011;38739;53.324;6.862;2023-07-09T01:03:15;53.22;;;19.73;;
52866;SDS011;38739;53.324;6.862;2023-07-09T01:05:58;34.78;;;13.88;;
52866;SDS011;38739;53.324;6.862;2023-07-09T01:08:24;45.55;;;16.73;;
52866;SDS011;38739;53.324;6.862;2023-07-09T01:10:55;37.15;;;15.23;;
52866;SDS011;38739;53.324;6.862;2023-07-09T01:13:22;33.75;;;17.33;;
52866;SDS011;38739;53.324;6.862;2023-07-09T01:15:51;38.75;;;15.98;;
52866;SDS011;38739;53.324;6.862;2023-07-09T01:18:17;42.47;;;14.57;;
52866;SDS011;38739;53.324;6.862;2023-07-09T01:20:43;30.65;;;11.98;;
52866;SDS011;38739;53.324;6.862;2023-07-09T01:23:10;49.15;;;16.77;;
52866;SDS011;38739;53.324;6.862;2023-07-09T01:25:37;17.60;;;11.43;;
52866;SDS011;38739;53.324;6.862;2023-07-09T01:28:07;129.73;;;61.33;;
52866;SDS011;38739;53.324;6.862;2023-07-09T01:30:37;50.25;;;16.05;;
52866;SDS011;38739;53.324;6.862;2023-07-09T01:33:05;26.15;;;17.92;;
52866;SDS011;38739;53.324;6.862;2023-07-09T01:35:32;24.42;;;11.75;;
52866;SDS011;38739;53.324;6.862;2023-07-09T01:38:00;41.97;;;14.10;;
52866;SDS011;38739;53.324;6.862;2023-07-09T01:40:27;14.27;;;10.18;;
52866;SDS011;38739;53.324;6.862;2023-07-09T01:42:54;22.30;;;11.25;;
52866;SDS011;38739;53.324;6.862;2023-07-09T01:45:23;36.65;;;15.45;;
52866;SDS011;38739;53.324;6.862;2023-07-09T01:47:49;17.30;;;10.32;;
52866;SDS011;38739;53.324;6.862;2023-07-09T01:50:14;30.75;;;17.00;;
52866;SDS011;38739;53.324;6.862;2023-07-09T01:52:41;37.55;;;16.77;;
52866;SDS011;38739;53.324;6.862;2023-07-09T01:55:13;19.92;;;12.20;;
52866;SDS011;38739;53.324;6.862;2023-07-09T01:57:42;15.30;;;11.20;;
52866;SDS011;38739;53.324;6.862;2023-07-09T02:00:09;28.88;;;15.40;;
52866;SDS011;38739;53.324;6.862;2023-07-09T02:02:38;14.27;;;9.60;;
52866;SDS011;38739;53.324;6.862;2023-07-09T02:05:08;12.70;;;10.13;;
52866;SDS011;38739;53.324;6.862;2023-07-09T02:07:34;15.95;;;11.50;;
52866;SDS011;38739;53.324;6.862;2023-07-09T02:10:00;19.75;;;11.13;;
52866;SDS011;38739;53.324;6.862;2023-07-09T02:12:26;21.52;;;13.32;;
52866;SDS011;38739;53.324;6.862;2023-07-09T02:14:52;14.10;;;9.68;;
52866;SDS011;38739;53.324;6.862;2023-07-09T02:17:17;12.05;;;9.27;;
52866;SDS011;38739;53.324;6.862;2023-07-09T02:19:43;18.77;;;10.50;;
52866;SDS011;38739;53.324;6.862;2023-07-09T02:22:09;11.75;;;9.15;;
52866;SDS011;38739;53.324;6.862;2023-07-09T02:24:36;14.07;;;9.65;;
52866;SDS011;38739;53.324;6.862;2023-07-09T02:27:03;11.10;;;9.52;;
52866;SDS011;38739;53.324;6.862;2023-07-09T02:29:31;13.00;;;10.23;;
52866;SDS011;38739;53.324;6.862;2023-07-09T02:31:58;10.60;;;9.27;;
52866;SDS011;38739;53.324;6.862;2023-07-09T02:34:26;13.65;;;10.13;;
52866;SDS011;38739;53.324;6.862;2023-07-09T02:36:53;13.63;;;11.27;;
52866;SDS011;38739;53.324;6.862;2023-07-09T02:39:19;11.85;;;9.18;;
52866;SDS011;38739;53.324;6.862;2023-07-09T02:41:46;10.25;;;9.00;;
52866;SDS011;38739;53.324;6.862;2023-07-09T02:44:12;10.38;;;9.10;;
52866;SDS011;38739;53.324;6.862;2023-07-09T02:46:38;23.48;;;15.43;;
52866;SDS011;38739;53.324;6.862;2023-07-09T02:49:04;11.70;;;9.48;;
52866;SDS011;38739;53.324;6.862;2023-07-09T02:51:31;12.52;;;10.38;;
52866;SDS011;38739;53.324;6.862;2023-07-09T02:53:57;10.70;;;9.55;;
52866;SDS011;38739;53.324;6.862;2023-07-09T02:56:27;10.93;;;9.48;;
52866;SDS011;38739;53.324;6.862;2023-07-09T02:58:53;19.35;;;13.30;;
52866;SDS011;38739;53.324;6.862;2023-07-09T03:01:19;20.33;;;13.48;;
52866;SDS011;38739;53.324;6.862;2023-07-09T03:03:56;15.15;;;11.23;;
52866;SDS011;38739;53.324;6.862;2023-07-09T03:06:26;12.20;;;10.18;;
52866;SDS011;38739;53.324;6.862;2023-07-09T03:08:52;13.38;;;10.68;;
52866;SDS011;38739;53.324;6.862;2023-07-09T03:11:19;12.90;;;10.35;;
52866;SDS011;38739;53.324;6.862;2023-07-09T03:13:45;20.90;;;15.48;;
52866;SDS011;38739;53.324;6.862;2023-07-09T03:16:12;15.15;;;10.40;;
52866;SDS011;38739;53.324;6.862;2023-07-09T03:18:39;13.18;;;10.57;;
52866;SDS011;38739;53.324;6.862;2023-07-09T03:21:05;14.07;;;11.10;;
52866;SDS011;38739;53.324;6.862;2023-07-09T03:23:30;13.10;;;11.77;;
52866;SDS011;38739;53.324;6.862;2023-07-09T03:25:56;14.95;;;10.63;;
52866;SDS011;38739;53.324;6.862;2023-07-09T03:28:22;18.20;;;12.52;;
52866;SDS011;38739;53.324;6.862;2023-07-09T03:30:48;23.90;;;16.83;;
52866;SDS011;38739;53.324;6.862;2023-07-09T03:33:15;22.13;;;16.60;;
52866;SDS011;38739;53.324;6.862;2023-07-09T03:35:41;10.98;;;9.82;;
52866;SDS011;38739;53.324;6.862;2023-07-09T03:38:08;14.25;;;11.55;;
52866;SDS011;38739;53.324;6.862;2023-07-09T03:40:35;11.60;;;10.27;;
52866;SDS011;38739;53.324;6.862;2023-07-09T03:43:03;12.43;;;9.80;;
52866;SDS011;38739;53.324;6.862;2023-07-09T03:45:34;12.95;;;10.73;;
52866;SDS011;38739;53.324;6.862;2023-07-09T03:48:00;12.35;;;10.38;;
52866;SDS011;38739;53.324;6.862;2023-07-09T03:50:26;11.80;;;9.90;;
52866;SDS011;38739;53.324;6.862;2023-07-09T03:52:52;14.27;;;9.75;;
52866;SDS011;38739;53.324;6.862;2023-07-09T03:55:18;12.27;;;9.85;;
52866;SDS011;38739;53.324;6.862;2023-07-09T03:57:44;41.90;;;32.40;;
52866;SDS011;38739;53.324;6.862;2023-07-09T04:00:10;21.05;;;10.35;;
52866;SDS011;38739;53.324;6.862;2023-07-09T04:02:37;15.35;;;10.73;;
52866;SDS011;38739;53.324;6.862;2023-07-09T04:05:03;12.43;;;10.32;;
52866;SDS011;38739;53.324;6.862;2023-07-09T04:07:30;13.13;;;10.63;;
52866;SDS011;38739;53.324;6.862;2023-07-09T04:09:56;11.90;;;9.68;;
52866;SDS011;38739;53.324;6.862;2023-07-09T04:12:21;13.65;;;10.68;;
52866;SDS011;38739;53.324;6.862;2023-07-09T04:14:47;12.07;;;9.85;;
52866;SDS011;38739;53.324;6.862;2023-07-09T04:17:13;11.43;;;10.23;;
52866;SDS011;38739;53.324;6.862;2023-07-09T04:19:38;12.65;;;9.45;;
52866;SDS011;38739;53.324;6.862;2023-07-09T04:22:04;12.70;;;10.40;;
52866;SDS011;38739;53.324;6.862;2023-07-09T04:24:30;12.63;;;10.23;;
52866;SDS011;38739;53.324;6.862;2023-07-09T04:26:58;14.25;;;10.45;;
52866;SDS011;38739;53.324;6.862;2023-07-09T04:29:28;12.85;;;10.23;;
52866;SDS011;38739;53.324;6.862;2023-07-09T04:31:54;23.65;;;14.93;;
52866;SDS011;38739;53.324;6.862;2023-07-09T04:34:20;11.85;;;10.52;;
52866;SDS011;38739;53.324;6.862;2023-07-09T04:36:46;20.40;;;15.48;;
52866;SDS011;38739;53.324;6.862;2023-07-09T04:39:11;14.73;;;11.20;;
52866;SDS011;38739;53.324;6.862;2023-07-09T04:41:37;14.60;;;10.88;;
52866;SDS011;38739;53.324;6.862;2023-07-09T04:44:03;13.55;;;11.07;;
52866;SDS011;38739;53.324;6.862;2023-07-09T04:46:43;16.67;;;10.73;;
52866;SDS011;38739;53.324;6.862;2023-07-09T04:49:09;13.27;;;11.07;;
52866;SDS011;38739;53.324;6.862;2023-07-09T04:51:36;21.38;;;11.43;;
52866;SDS011;38739;53.324;6.862;2023-07-09T04:54:02;16.83;;;11.52;;
52866;SDS011;38739;53.324;6.862;2023-07-09T04:56:29;14.85;;;11.15;;
52866;SDS011;38739;53.324;6.862;2023-07-09T04:58:55;15.43;;;11.82;;
52866;SDS011;38739;53.324;6.862;2023-07-09T05:01:22;12.80;;;10.60;;
52866;SDS011;38739;53.324;6.862;2023-07-09T05:03:48;13.35;;;10.68;;
52866;SDS011;38739;53.324;6.862;2023-07-09T05:06:14;15.07;;;11.60;;
52866;SDS011;38739;53.324;6.862;2023-07-09T05:08:40;18.52;;;12.73;;
52866;SDS011;38739;53.324;6.862;2023-07-09T05:11:06;14.23;;;11.32;;
52866;SDS011;38739;53.324;6.862;2023-07-09T05:13:32;12.45;;;11.05;;
52866;SDS011;38739;53.324;6.862;2023-07-09T05:15:58;12.02;;;10.73;;
52866;SDS011;38739;53.324;6.862;2023-07-09T05:18:24;12.82;;;11.18;;
52866;SDS011;38739;53.324;6.862;2023-07-09T05:20:50;15.77;;;11.90;;
52866;SDS011;38739;53.324;6.862;2023-07-09T05:23:16;13.60;;;10.90;;
52866;SDS011;38739;53.324;6.862;2023-07-09T05:25:41;14.60;;;10.25;;
52866;SDS011;38739;53.324;6.862;2023-07-09T05:28:07;15.18;;;10.95;;
52866;SDS011;38739;53.324;6.862;2023-07-09T05:30:33;15.00;;;10.93;;
52866;SDS011;38739;53.324;6.862;2023-07-09T05:32:59;14.18;;;11.23;;
52866;SDS011;38739;53.324;6.862;2023-07-09T05:35:28;13.85;;;11.45;;
52866;SDS011;38739;53.324;6.862;2023-07-09T05:37:54;13.45;;;11.13;;
52866;SDS011;38739;53.324;6.862;2023-07-09T05:40:20;20.30;;;13.90;;
52866;SDS011;38739;53.324;6.862;2023-07-09T05:42:47;14.45;;;11.88;;
52866;SDS011;38739;53.324;6.862;2023-07-09T05:45:13;12.63;;;10.98;;
52866;SDS011;38739;53.324;6.862;2023-07-09T05:47:40;15.15;;;11.27;;
52866;SDS011;38739;53.324;6.862;2023-07-09T05:50:06;16.08;;;12.85;;
52866;SDS011;38739;53.324;6.862;2023-07-09T05:52:32;22.42;;;12.93;;
52866;SDS011;38739;53.324;6.862;2023-07-09T05:54:57;15.77;;;11.85;;
52866;SDS011;38739;53.324;6.862;2023-07-09T05:57:24;18.85;;;11.70;;
52866;SDS011;38739;53.324;6.862;2023-07-09T05:59:50;15.68;;;9.60;;
52866;SDS011;38739;53.324;6.862;2023-07-09T06:02:16;15.20;;;10.68;;
52866;SDS011;38739;53.324;6.862;2023-07-09T06:04:44;12.05;;;10.60;;
52866;SDS011;38739;53.324;6.862;2023-07-09T06:07:11;11.93;;;10.18;;
52866;SDS011;38739;53.324;6.862;2023-07-09T06:09:38;14.25;;;10.18;;
52866;SDS011;38739;53.324;6.862;2023-07-09T06:12:05;15.30;;;11.80;;
52866;SDS011;38739;53.324;6.862;2023-07-09T06:14:31;13.98;;;10.70;;
52866;SDS011;38739;53.324;6.862;2023-07-09T06:16:58;12.77;;;11.38;;
52866;SDS011;38739;53.324;6.862;2023-07-09T06:19:24;18.95;;;11.68;;
52866;SDS011;38739;53.324;6.862;2023-07-09T06:21:50;12.10;;;10.20;;
52866;SDS011;38739;53.324;6.862;2023-07-09T06:24:16;13.80;;;10.55;;
52866;SDS011;38739;53.324;6.862;2023-07-09T06:26:41;11.20;;;10.02;;
52866;SDS011;38739;53.324;6.862;2023-07-09T06:29:07;12.70;;;10.63;;
52866;SDS011;38739;53.324;6.862;2023-07-09T06:31:33;15.13;;;11.27;;
52866;SDS011;38739;53.324;6.862;2023-07-09T06:33:59;18.05;;;13.80;;
52866;SDS011;38739;53.324;6.862;2023-07-09T06:36:25;16.80;;;11.18;;
52866;SDS011;38739;53.324;6.862;2023-07-09T06:38:50;14.88;;;11.98;;
52866;SDS011;38739;53.324;6.862;2023-07-09T06:41:16;12.20;;;10.15;;
52866;SDS011;38739;53.324;6.862;2023-07-09T06:43:42;28.52;;;18.05;;
52866;SDS011;38739;53.324;6.862;2023-07-09T06:46:09;15.23;;;11.85;;
52866;SDS011;38739;53.324;6.862;2023-07-09T06:48:36;19.75;;;11.38;;
52866;SDS011;38739;53.324;6.862;2023-07-09T06:51:02;19.13;;;11.20;;
52866;SDS011;38739;53.324;6.862;2023-07-09T06:53:28;24.48;;;13.68;;
52866;SDS011;38739;53.324;6.862;2023-07-09T06:55:54;17.63;;;10.90;;
52866;SDS011;38739;53.324;6.862;2023-07-09T06:58:24;17.95;;;10.38;;
52866;SDS011;38739;53.324;6.862;2023-07-09T07:00:52;26.60;;;13.65;;
52866;SDS011;38739;53.324;6.862;2023-07-09T07:03:21;32.70;;;17.13;;
52866;SDS011;38739;53.324;6.862;2023-07-09T07:05:52;25.95;;;15.40;;
52866;SDS011;38739;53.324;6.862;2023-07-09T07:08:22;24.35;;;12.95;;
52866;SDS011;38739;53.324;6.862;2023-07-09T07:10:50;31.48;;;14.10;;
52866;SDS011;38739;53.324;6.862;2023-07-09T07:13:27;28.63;;;15.48;;
52866;SDS011;38739;53.324;6.862;2023-07-09T07:15:54;31.63;;;14.88;;
52866;SDS011;38739;53.324;6.862;2023-07-09T07:18:20;40.58;;;17.35;;
52866;SDS011;38739;53.324;6.862;2023-07-09T07:20:45;41.10;;;18.38;;
52866;SDS011;38739;53.324;6.862;2023-07-09T07:23:11;58.60;;;23.08;;
52866;SDS011;38739;53.324;6.862;2023-07-09T07:25:37;74.22;;;24.05;;
52866;SDS011;38739;53.324;6.862;2023-07-09T07:28:03;85.60;;;29.30;;
52866;SDS011;38739;53.324;6.862;2023-07-09T07:30:29;38.25;;;17.52;;
52866;SDS011;38739;53.324;6.862;2023-07-09T07:32:55;61.83;;;26.38;;
52866;SDS011;38739;53.324;6.862;2023-07-09T07:35:21;100.07;;;58.35;;
52866;SDS011;38739;53.324;6.862;2023-07-09T07:37:46;48.03;;;19.65;;
52866;SDS011;38739;53.324;6.862;2023-07-09T07:40:12;49.15;;;15.95;;
52866;SDS011;38739;53.324;6.862;2023-07-09T07:42:38;80.35;;;21.58;;
52866;SDS011;38739;53.324;6.862;2023-07-09T07:45:04;57.65;;;20.92;;
52866;SDS011;38739;53.324;6.862;2023-07-09T07:47:30;41.30;;;18.75;;
52866;SDS011;38739;53.324;6.862;2023-07-09T07:49:56;85.97;;;26.92;;
52866;SDS011;38739;53.324;6.862;2023-07-09T07:52:22;71.78;;;29.45;;
52866;SDS011;38739;53.324;6.862;2023-07-09T07:54:48;82.55;;;21.83;;
52866;SDS011;38739;53.324;6.862;2023-07-09T07:57:14;63.05;;;28.77;;
52866;SDS011;38739;53.324;6.862;2023-07-09T07:59:40;85.63;;;21.60;;
52866;SDS011;38739;53.324;6.862;2023-07-09T08:02:06;56.58;;;19.95;;
52866;SDS011;38739;53.324;6.862;2023-07-09T08:04:36;112.88;;;39.33;;
52866;SDS011;38739;53.324;6.862;2023-07-09T08:07:03;76.65;;;19.25;;
52866;SDS011;38739;53.324;6.862;2023-07-09T08:09:29;66.28;;;18.35;;
52866;SDS011;38739;53.324;6.862;2023-07-09T08:11:55;78.90;;;26.08;;
52866;SDS011;38739;53.324;6.862;2023-07-09T08:14:20;68.03;;;27.15;;
52866;SDS011;38739;53.324;6.862;2023-07-09T08:16:47;51.13;;;20.20;;
52866;SDS011;38739;53.324;6.862;2023-07-09T08:19:13;39.97;;;16.75;;
52866;SDS011;38739;53.324;6.862;2023-07-09T08:21:39;56.40;;;18.02;;
52866;SDS011;38739;53.324;6.862;2023-07-09T08:24:04;62.65;;;18.05;;
52866;SDS011;38739;53.324;6.862;2023-07-09T08:26:30;67.78;;;20.83;;
52866;SDS011;38739;53.324;6.862;2023-07-09T08:28:57;94.10;;;30.75;;
52866;SDS011;38739;53.324;6.862;2023-07-09T08:31:23;30.30;;;13.75;;
52866;SDS011;38739;53.324;6.862;2023-07-09T08:33:49;45.67;;;16.35;;
52866;SDS011;38739;53.324;6.862;2023-07-09T08:36:14;24.35;;;10.18;;
52866;SDS011;38739;53.324;6.862;2023-07-09T08:38:40;80.03;;;34.03;;
52866;SDS011;38739;53.324;6.862;2023-07-09T08:46:37;48.28;;;18.02;;
52866;SDS011;38739;53.324;6.862;2023-07-09T08:49:17;23.02;;;11.00;;
52866;SDS011;38739;53.324;6.862;2023-07-09T08:54:25;13.55;;;9.63;;
52866;SDS011;38739;53.324;6.862;2023-07-09T08:56:54;14.00;;;8.40;;
52866;SDS011;38739;53.324;6.862;2023-07-09T08:59:24;13.03;;;8.60;;
52866;SDS011;38739;53.324;6.862;2023-07-09T09:01:52;19.52;;;9.70;;
52866;SDS011;38739;53.324;6.862;2023-07-09T09:04:29;11.80;;;7.50;;
52866;SDS011;38739;53.324;6.862;2023-07-09T09:09:44;11.52;;;8.60;;
52866;SDS011;38739;53.324;6.862;2023-07-09T09:12:22;14.57;;;8.88;;
52866;SDS011;38739;53.324;6.862;2023-07-09T09:14:56;10.43;;;7.55;;
52866;SDS011;38739;53.324;6.862;2023-07-09T09:17:24;12.18;;;8.27;;
52866;SDS011;38739;53.324;6.862;2023-07-09T09:20:04;10.80;;;7.82;;
52866;SDS011;38739;53.324;6.862;2023-07-09T09:25:29;11.02;;;7.95;;
52866;SDS011;38739;53.324;6.862;2023-07-09T09:27:59;8.00;;;6.95;;
52866;SDS011;38739;53.324;6.862;2023-07-09T09:30:25;9.18;;;6.80;;
52866;SDS011;38739;53.324;6.862;2023-07-09T09:33:00;11.80;;;7.53;;
52866;SDS011;38739;53.324;6.862;2023-07-09T09:35:40;11.65;;;7.15;;
52866;SDS011;38739;53.324;6.862;2023-07-09T09:38:20;9.20;;;6.30;;
52866;SDS011;38739;53.324;6.862;2023-07-09T09:40:47;11.40;;;6.97;;
52866;SDS011;38739;53.324;6.862;2023-07-09T09:43:14;8.15;;;6.95;;
52866;SDS011;38739;53.324;6.862;2023-07-09T09:45:43;10.45;;;7.50;;
52866;SDS011;38739;53.324;6.862;2023-07-09T09:48:16;9.10;;;6.57;;
52866;SDS011;38739;53.324;6.862;2023-07-09T09:50:52;10.68;;;7.18;;
52866;SDS011;38739;53.324;6.862;2023-07-09T09:53:21;15.95;;;7.30;;
52866;SDS011;38739;53.324;6.862;2023-07-09T09:55:50;9.48;;;6.78;;
52866;SDS011;38739;53.324;6.862;2023-07-09T09:58:18;11.32;;;6.72;;
52866;SDS011;38739;53.324;6.862;2023-07-09T10:00:48;9.35;;;6.70;;
52866;SDS011;38739;53.324;6.862;2023-07-09T10:03:16;8.73;;;6.88;;
52866;SDS011;38739;53.324;6.862;2023-07-09T10:05:43;11.18;;;7.07;;
52866;SDS011;38739;53.324;6.862;2023-07-09T10:11:08;8.50;;;7.18;;
52866;SDS011;38739;53.324;6.862;2023-07-09T10:13:42;12.50;;;7.68;;
52866;SDS011;38739;53.324;6.862;2023-07-09T10:16:27;9.23;;;7.40;;
52866;SDS011;38739;53.324;6.862;2023-07-09T10:19:25;10.43;;;7.22;;
52866;SDS011;38739;53.324;6.862;2023-07-09T10:22:10;9.73;;;6.47;;
52866;SDS011;38739;53.324;6.862;2023-07-09T10:41:11;8.07;;;7.05;;
52866;SDS011;38739;53.324;6.862;2023-07-09T10:44:00;11.57;;;7.40;;
52866;SDS011;38739;53.324;6.862;2023-07-09T10:46:31;9.93;;;8.45;;
52866;SDS011;38739;53.324;6.862;2023-07-09T10:48:59;9.57;;;6.85;;
52866;SDS011;38739;53.324;6.862;2023-07-09T10:51:38;11.88;;;8.32;;
52866;SDS011;38739;53.324;6.862;2023-07-09T10:56:47;10.77;;;8.25;;
52866;SDS011;38739;53.324;6.862;2023-07-09T11:01:58;11.07;;;7.68;;
52866;SDS011;38739;53.324;6.862;2023-07-09T11:04:38;14.88;;;9.13;;
52866;SDS011;38739;53.324;6.862;2023-07-09T11:07:13;11.93;;;9.55;;
52866;SDS011;38739;53.324;6.862;2023-07-09T11:09:43;12.48;;;9.45;;
52866;SDS011;38739;53.324;6.862;2023-07-09T11:15:42;11.15;;;9.05;;
52866;SDS011;38739;53.324;6.862;2023-07-09T11:17:56;13.38;;;9.27;;
52866;SDS011;38739;53.324;6.862;2023-07-09T11:20:28;12.98;;;8.88;;
52866;SDS011;38739;53.324;6.862;2023-07-09T11:23:03;11.07;;;8.82;;
52866;SDS011;38739;53.324;6.862;2023-07-09T11:25:41;12.35;;;9.77;;
52866;SDS011;38739;53.324;6.862;2023-07-09T11:28:12;11.90;;;8.68;;
52866;SDS011;38739;53.324;6.862;2023-07-09T11:30:54;10.90;;;7.68;;
52866;SDS011;38739;53.324;6.862;2023-07-09T11:33:29;11.80;;;8.70;;
52866;SDS011;38739;53.324;6.862;2023-07-09T11:38:44;12.60;;;9.20;;
52866;SDS011;38739;53.324;6.862;2023-07-09T11:44:15;10.52;;;8.90;;
52866;SDS011;38739;53.324;6.862;2023-07-09T11:47:25;11.07;;;9.73;;
52866;SDS011;38739;53.324;6.862;2023-07-09T11:49:59;11.32;;;8.90;;
52866;SDS011;38739;53.324;6.862;2023-07-09T11:52:34;14.02;;;9.63;;
52866;SDS011;38739;53.324;6.862;2023-07-09T11:58:14;11.70;;;9.85;;
52866;SDS011;38739;53.324;6.862;2023-07-09T12:00:45;13.55;;;9.75;;
52866;SDS011;38739;53.324;6.862;2023-07-09T12:03:20;16.92;;;9.90;;
52866;SDS011;38739;53.324;6.862;2023-07-09T12:05:53;11.88;;;10.50;;
52866;SDS011;38739;53.324;6.862;2023-07-09T12:08:36;11.55;;;9.98;;
52866;SDS011;38739;53.324;6.862;2023-07-09T12:11:03;11.18;;;9.48;;
52866;SDS011;38739;53.324;6.862;2023-07-09T12:13:36;12.20;;;9.57;;
52866;SDS011;38739;53.324;6.862;2023-07-09T12:16:18;13.82;;;8.95;;
52866;SDS011;38739;53.324;6.862;2023-07-09T12:18:46;14.18;;;10.55;;
52866;SDS011;38739;53.324;6.862;2023-07-09T12:21:12;13.57;;;10.80;;
52866;SDS011;38739;53.324;6.862;2023-07-09T12:23:39;14.75;;;10.90;;
52866;SDS011;38739;53.324;6.862;2023-07-09T12:26:06;15.23;;;9.20;;
52866;SDS011;38739;53.324;6.862;2023-07-09T12:28:36;13.65;;;10.43;;
52866;SDS011;38739;53.324;6.862;2023-07-09T12:31:02;15.52;;;10.50;;
52866;SDS011;38739;53.324;6.862;2023-07-09T12:33:28;13.23;;;9.23;;
52866;SDS011;38739;53.324;6.862;2023-07-09T12:35:57;13.52;;;9.10;;
52866;SDS011;38739;53.324;6.862;2023-07-09T12:38:26;10.60;;;8.25;;
52866;SDS011;38739;53.324;6.862;2023-07-09T12:40:54;9.05;;;7.88;;
52866;SDS011;38739;53.324;6.862;2023-07-09T12:43:30;11.68;;;9.15;;
52866;SDS011;38739;53.324;6.862;2023-07-09T12:45:57;11.88;;;7.70;;
52866;SDS011;38739;53.324;6.862;2023-07-09T12:48:24;12.82;;;8.40;;
52866;SDS011;38739;53.324;6.862;2023-07-09T12:50:56;11.48;;;7.90;;
52866;SDS011;38739;53.324;6.862;2023-07-09T12:53:23;8.07;;;7.22;;
52866;SDS011;38739;53.324;6.862;2023-07-09T12:55:58;12.73;;;7.95;;
52866;SDS011;38739;53.324;6.862;2023-07-09T12:58:29;10.43;;;6.68;;
52866;SDS011;38739;53.324;6.862;2023-07-09T13:00:57;10.00;;;7.55;;
52866;SDS011;38739;53.324;6.862;2023-07-09T13:03:31;9.05;;;8.05;;
52866;SDS011;38739;53.324;6.862;2023-07-09T13:06:05;10.80;;;7.78;;
52866;SDS011;38739;53.324;6.862;2023-07-09T13:08:54;12.13;;;7.80;;
52866;SDS011;38739;53.324;6.862;2023-07-09T13:11:25;7.43;;;6.55;;
52866;SDS011;38739;53.324;6.862;2023-07-09T13:13:58;7.47;;;6.78;;
52866;SDS011;38739;53.324;6.862;2023-07-09T13:16:27;8.63;;;6.80;;
52866;SDS011;38739;53.324;6.862;2023-07-09T13:18:53;10.60;;;7.60;;
52866;SDS011;38739;53.324;6.862;2023-07-09T13:21:19;8.70;;;7.05;;
52866;SDS011;38739;53.324;6.862;2023-07-09T13:23:46;9.63;;;7.13;;
52866;SDS011;38739;53.324;6.862;2023-07-09T13:26:13;9.32;;;6.95;;
52866;SDS011;38739;53.324;6.862;2023-07-09T13:28:39;8.52;;;6.57;;
52866;SDS011;38739;53.324;6.862;2023-07-09T13:33:50;10.75;;;6.82;;
52866;SDS011;38739;53.324;6.862;2023-07-09T13:36:18;7.57;;;6.75;;
52866;SDS011;38739;53.324;6.862;2023-07-09T13:38:44;9.07;;;7.30;;
52866;SDS011;38739;53.324;6.862;2023-07-09T13:41:14;9.07;;;6.60;;
52866;SDS011;38739;53.324;6.862;2023-07-09T13:43:43;8.55;;;6.57;;
52866;SDS011;38739;53.324;6.862;2023-07-09T13:46:11;9.75;;;7.35;;
52866;SDS011;38739;53.324;6.862;2023-07-09T13:48:38;13.48;;;6.78;;
52866;SDS011;38739;53.324;6.862;2023-07-09T13:51:18;9.52;;;6.50;;
52866;SDS011;38739;53.324;6.862;2023-07-09T13:53:48;11.13;;;6.65;;
52866;SDS011;38739;53.324;6.862;2023-07-09T13:56:16;11.63;;;6.85;;
52866;SDS011;38739;53.324;6.862;2023-07-09T13:58:42;10.75;;;6.78;;
52866;SDS011;38739;53.324;6.862;2023-07-09T14:01:13;10.82;;;6.60;;
52866;SDS011;38739;53.324;6.862;2023-07-09T14:03:41;7.78;;;6.18;;
52866;SDS011;38739;53.324;6.862;2023-07-09T14:06:13;8.02;;;6.20;;
52866;SDS011;38739;53.324;6.862;2023-07-09T14:08:40;7.65;;;6.85;;
52866;SDS011;38739;53.324;6.862;2023-07-09T14:11:10;8.15;;;6.75;;
52866;SDS011;38739;53.324;6.862;2023-07-09T14:13:37;7.97;;;6.20;;
52866;SDS011;38739;53.324;6.862;2023-07-09T14:16:04;10.60;;;7.07;;
52866;SDS011;38739;53.324;6.862;2023-07-09T14:18:30;10.88;;;7.35;;
52866;SDS011;38739;53.324;6.862;2023-07-09T14:20:55;10.35;;;7.13;;
52866;SDS011;38739;53.324;6.862;2023-07-09T14:23:21;11.05;;;8.00;;
52866;SDS011;38739;53.324;6.862;2023-07-09T14:25:47;10.32;;;7.60;;
52866;SDS011;38739;53.324;6.862;2023-07-09T14:28:17;11.73;;;6.80;;
52866;SDS011;38739;53.324;6.862;2023-07-09T14:33:12;12.57;;;7.65;;
52866;SDS011;38739;53.324;6.862;2023-07-09T14:35:48;10.02;;;7.45;;
52866;SDS011;38739;53.324;6.862;2023-07-09T14:38:21;9.43;;;7.22;;
52866;SDS011;38739;53.324;6.862;2023-07-09T14:40:49;9.63;;;7.35;;
52866;SDS011;38739;53.324;6.862;2023-07-09T14:43:17;11.68;;;7.85;;
52866;SDS011;38739;53.324;6.862;2023-07-09T14:45:42;11.10;;;7.35;;
52866;SDS011;38739;53.324;6.862;2023-07-09T14:48:09;8.77;;;6.45;;
52866;SDS011;38739;53.324;6.862;2023-07-09T14:50:35;9.95;;;7.10;;
52866;SDS011;38739;53.324;6.862;2023-07-09T14:53:01;14.98;;;8.35;;
52866;SDS011;38739;53.324;6.862;2023-07-09T14:55:27;12.45;;;7.80;;
52866;SDS011;38739;53.324;6.862;2023-07-09T14:57:54;10.55;;;9.02;;
52866;SDS011;38739;53.324;6.862;2023-07-09T15:00:21;11.63;;;8.63;;
52866;SDS011;38739;53.324;6.862;2023-07-09T15:02:52;15.85;;;10.32;;
52866;SDS011;38739;53.324;6.862;2023-07-09T15:05:22;18.00;;;14.15;;
52866;SDS011;38739;53.324;6.862;2023-07-09T15:07:50;18.15;;;16.10;;
52866;SDS011;38739;53.324;6.862;2023-07-09T15:10:18;16.23;;;14.63;;
52866;SDS011;38739;53.324;6.862;2023-07-09T15:12:50;16.67;;;14.73;;
52866;SDS011;38739;53.324;6.862;2023-07-09T15:17:52;19.20;;;17.17;;
52866;SDS011;38739;53.324;6.862;2023-07-09T15:20:23;20.65;;;17.75;;
52866;SDS011;38739;53.324;6.862;2023-07-09T15:22:53;20.38;;;18.27;;
52866;SDS011;38739;53.324;6.862;2023-07-09T15:25:22;24.35;;;19.35;;
52866;SDS011;38739;53.324;6.862;2023-07-09T15:30:19;22.23;;;19.33;;
52866;SDS011;38739;53.324;6.862;2023-07-09T15:35:16;19.63;;;15.60;;
52866;SDS011;38739;53.324;6.862;2023-07-09T15:37:44;21.90;;;15.98;;
52866;SDS011;38739;53.324;6.862;2023-07-09T15:40:18;42.95;;;26.48;;
52866;SDS011;38739;53.324;6.862;2023-07-09T15:42:48;51.40;;;28.45;;
52866;SDS011;38739;53.324;6.862;2023-07-09T15:45:17;68.00;;;34.00;;
52866;SDS011;38739;53.324;6.862;2023-07-09T15:47:47;29.60;;;23.38;;